Socorro, New Mexico
Current Conditions -  °F | °C
As of 3:15 PM on Sunday 21 Dec 2014 (Local Time) from KONM Reporting Station
Clear Clear  
Wind Chill: 12°   Ceiling: Unl
Heat Index: 12°   Visibility: 10mi
Dew Point: -4°   Wind: 5mph
Humidity: 33%   Direction: 190°S
Pressure: 29.91"   Gusts: NA
Location:  34.06°N, 106.89°W
Report Text: KONM 212215Z AUTO 19004KT 10SM CLR 12/M04 A2991 RMK AO2 T01211038
Loading
Personal Weather Stations






























Interactive Weather Map New forecast layout! Learn more

10-Day Weather Forecast

Advertisements
Track Severe Weather on mobile